Plattsmouth, NE (68048)

12:39 AM CST on December 04, 2016 (GMT -0600)
Osage Ranch | | Change Station

Elev 1132 ft 41.00 °N, 95.91 °W | Updated 56 seconds ago

Drizzle
Drizzle
34.2 °F
Feels Like 30 °F
N
5.0
Wind Variable Wind from SSW

Today
High -- | Low -- °F
--% Chance of Precip.
Yesterday
High -- | Low -- °F
Precip. -- in
Pressure 30.04 in
Visibility 5.0 miles
Clouds Scattered Clouds 1000 ft
Mostly Cloudy 3700 ft
Overcast 5000 ft
Windchill 30 °F
Dew Point 34 °F
Humidity 98%
Rainfall 0.00 in
Snow Depth Not available.
7:32 AM 4:55 PM
Waxing Crescent, 20% visible
METAR KPMV 040635Z AUTO 18009KT 5SM DZ SCT010 BKN037 OVC050 02/01 A3004 RMK AO2 T00160005
Pressure 30.04 in
Visibility 5.0 miles
Clouds Scattered Clouds 1000 ft
Mostly Cloudy 3700 ft
Overcast 5000 ft
Windchill 30 °F
Dew Point 34 °F
Humidity 98%
Rainfall 0.00 in
Snow Depth Not available.
7:32 AM 4:55 PM
Waxing Crescent, 20% visible
METAR KPMV 040635Z AUTO 18009KT 5SM DZ SCT010 BKN037 OVC050 02/01 A3004 RMK AO2 T00160005

10-Day Weather Forecast

Almanac

Astronomy

Dec. 04, 2016 Rise Set
Actual Time
Civil Twilight
Nautical Twilight
Astronomical Twilight
Moon
Length of Visible Light
Length of Day
Tomorrow will be .
, % of the Moon is Illuminated

Today's Extremes

State Highs State Lows

Community

WunderPhotos

Upload Photos

1,955,588 photos uploaded!

WunderBlog® & News

Nearby

Air Quality

  Air Quality AQ Index Pollutant
Not available.

Snow Depth

Station Depth Elevation

Earthquake Activity

City Distance Mag. Time & Date
Minimum magnitude displayed is 2.5.

Coastal Water Temperatures

Place Temperature

Stations

Nearby Weather Stations

Station Location Temp. Windchill Dew Point Humidity Wind Precip. Elev Updated Type
                   

Watches & Warnings

There are currently no watches in effect.